Time;durP1;ratioP1;P1;durP2;ratioP2;P2;SDS_P1;SDS_P2;PMS_P1;PMS_P2;Temp;Humidity;BMP_temperature;BMP_pressure;BME280_temperature;BME280_humidity;BME280_pressure;Samples;Min_cycle;Max_cycle;Signal;HPM_P1;HPM_P2
2023/09/18 00:01:50;;;;;;;1.42;1.23;;;;;;;15.62;100.00;101272.56;5062400;28;20047;-87
2023/09/18 00:04:15;;;;;;;2.30;1.75;;;;;;;15.36;100.00;101220.72;5069381;28;20036;-84
2023/09/18 00:06:41;;;;;;;2.33;1.50;;;;;;;15.60;100.00;101255.81;5069235;28;20037;-86
2023/09/18 00:09:11;;;;;;;0.70;0.57;;;;;;;15.02;100.00;101146.03;5070018;28;20032;-86
2023/09/18 00:11:37;;;;;;;2.47;1.55;;;;;;;15.93;100.00;101278.53;5069278;28;20028;-86
2023/09/18 00:14:03;;;;;;;0.60;0.47;;;;;;;15.82;100.00;101251.28;5070183;28;20499;-85
2023/09/18 00:16:29;;;;;;;1.58;0.93;;;;;;;15.51;100.00;101243.53;5062266;28;20040;-86
2023/09/18 00:18:54;;;;;;;0.57;0.52;;;;;;;15.58;100.00;101250.53;5071306;28;20040;-86
2023/09/18 00:21:20;;;;;;;1.05;0.95;;;;;;;15.73;100.00;101278.69;5069191;28;20044;-85
2023/09/18 00:23:46;;;;;;;0.93;0.90;;;;;;;14.98;100.00;101124.03;5064911;28;21329;-86
2023/09/18 00:26:11;;;;;;;1.40;0.95;;;;;;;15.59;100.00;101246.13;5051104;28;20074;-86
2023/09/18 00:28:37;;;;;;;0.82;0.80;;;;;;;14.88;100.00;101161.97;5041275;28;20068;-84
2023/09/18 00:31:02;;;;;;;0.90;0.65;;;;;;;14.92;100.00;101176.06;5045563;28;20045;-84
2023/09/18 00:33:29;;;;;;;1.70;1.25;;;;;;;15.57;100.00;101274.38;5051824;28;20128;-84
2023/09/18 00:35:55;;;;;;;1.85;1.75;;;;;;;15.56;100.00;101293.75;5067827;28;20064;-85
2023/09/18 00:38:20;;;;;;;0.60;0.60;;;;;;;15.39;100.00;101256.84;5062127;28;20068;-86
2023/09/18 00:40:46;;;;;;;1.38;1.27;;;;;;;14.34;100.00;101079.47;5068716;28;20057;-85
2023/09/18 00:43:11;;;;;;;1.10;1.00;;;;;;;14.96;100.00;101202.47;5059832;28;20062;-83
2023/09/18 00:45:43;;;;;;;0.50;0.40;;;;;;;15.47;100.00;101284.09;5048615;28;20055;-82
2023/09/18 00:48:09;;;;;;;1.88;0.93;;;;;;;14.59;100.00;101140.13;5048848;28;20040;-83
2023/09/18 00:50:35;;;;;;;2.30;1.38;;;;;;;14.30;100.00;101096.19;5063797;28;20078;-83
2023/09/18 00:53:01;;;;;;;1.90;1.17;;;;;;;14.73;100.00;101186.72;5064367;28;20033;-84
2023/09/18 00:55:30;;;;;;;1.10;1.05;;;;;;;14.73;100.00;101178.78;5048411;28;20547;-84
2023/09/18 00:57:56;;;;;;;0.32;0.32;;;;;;;15.34;100.00;101282.44;5041211;28;20048;-84
2023/09/18 01:00:22;;;;;;;1.63;1.20;;;;;;;15.32;100.00;101278.94;5046376;28;20049;-84
2023/09/18 01:02:48;;;;;;;0.88;0.70;;;;;;;15.26;100.00;101286.88;5025178;28;20037;-85
2023/09/18 01:05:16;;;;;;;0.85;0.82;;;;;;;14.71;100.00;101200.81;5030864;28;20029;-85
2023/09/18 01:07:42;;;;;;;1.38;0.95;;;;;;;15.27;100.00;101288.66;5048292;28;20079;-86
2023/09/18 01:10:09;;;;;;;1.08;0.70;;;;;;;15.42;100.00;101285.91;5040473;28;20045;-85
2023/09/18 01:12:45;;;;;;;1.67;1.25;;;;;;;14.49;100.00;101152.44;5047177;28;20154;-85
2023/09/18 01:15:30;;;;;;;1.33;1.23;;;;;;;15.06;100.00;101248.22;5045243;28;20057;-85
2023/09/18 01:17:56;;;;;;;2.45;2.25;;;;;;;14.80;100.00;101181.38;5024519;28;20834;-86
2023/09/18 01:20:21;;;;;;;1.45;1.35;;;;;;;14.62;100.00;101155.97;5029504;28;20056;-86
2023/09/18 01:22:49;;;;;;;4.43;0.73;;;;;;;14.80;100.00;101218.38;5014737;28;20069;-84
2023/09/18 01:25:15;;;;;;;0.68;0.60;;;;;;;14.98;100.00;101244.72;5024023;28;20750;-82
2023/09/18 01:27:41;;;;;;;1.38;1.25;;;;;;;14.12;100.00;101110.38;5013320;28;20082;-84
2023/09/18 01:30:07;;;;;;;1.33;1.23;;;;;;;14.59;100.00;101198.25;5047848;28;20052;-84
2023/09/18 01:32:36;;;;;;;4.45;1.63;;;;;;;14.31;100.00;101148.13;5048421;28;20392;-84
2023/09/18 01:35:06;;;;;;;1.15;0.85;;;;;;;14.82;100.00;101256.25;5043844;28;20036;-83
2023/09/18 01:37:35;;;;;;;0.38;0.38;;;;;;;14.47;100.00;101207.91;5043102;28;20508;-87
2023/09/18 01:40:06;;;;;;;1.85;1.48;;;;;;;14.94;100.00;101282.66;5042560;28;20159;-89
2023/09/18 01:42:32;;;;;;;0.80;0.80;;;;;;;13.71;100.00;101077.03;5023996;28;20053;-87
2023/09/18 01:44:58;;;;;;;1.60;1.50;;;;;;;14.24;100.00;101178.06;5042497;28;20042;-87
2023/09/18 01:47:24;;;;;;;1.02;0.73;;;;;;;14.07;100.00;101149.06;5047432;28;20420;-87
2023/09/18 01:49:49;;;;;;;2.78;1.88;;;;;;;14.31;100.00;101172.75;5043605;28;20049;-90
2023/09/18 01:52:15;;;;;;;0.73;0.73;;;;;;;14.23;100.00;101178.94;5030078;28;20110;-88
2023/09/18 01:54:41;;;;;;;1.30;1.10;;;;;;;14.01;100.00;101165.78;5031396;28;20044;-88
2023/09/18 01:57:09;;;;;;;2.60;2.13;;;;;;;14.25;100.00;101206.22;5054246;28;20436;-86
2023/09/18 01:59:38;;;;;;;0.73;0.68;;;;;;;14.60;100.00;101274.81;5048906;28;20139;-87
2023/09/18 02:02:06;;;;;;;2.58;1.50;;;;;;;13.94;100.00;101178.13;5046066;28;20091;-87
2023/09/18 02:04:32;;;;;;;1.90;1.70;;;;;;;14.14;100.00;101208.88;5056693;28;20056;-88
2023/09/18 02:06:59;;;;;;;4.32;2.50;;;;;;;14.51;100.00;101257.19;5025147;28;20136;-89
2023/09/18 02:09:24;;;;;;;1.95;1.63;;;;;;;14.45;100.00;101244.00;5046611;28;20131;-88
2023/09/18 02:11:50;;;;;;;2.42;1.60;;;;;;;14.64;100.00;101262.50;5049682;28;20044;-87
2023/09/18 02:14:15;;;;;;;1.42;1.33;;;;;;;14.03;100.00;101169.31;5042345;28;20082;-88
2023/09/18 02:16:43;;;;;;;2.60;2.10;;;;;;;14.72;100.00;101266.84;5049763;28;20045;-88
2023/09/18 02:19:09;;;;;;;2.50;2.03;;;;;;;14.18;100.00;101155.19;5049694;28;20052;-87
2023/09/18 02:21:35;;;;;;;4.20;1.88;;;;;;;14.00;100.00;101137.66;5062228;28;20511;-86
2023/09/18 02:24:01;;;;;;;4.57;2.67;;;;;;;14.34;100.00;101179.78;5059089;28;20033;-89
2023/09/18 02:26:29;;;;;;;2.35;1.95;;;;;;;14.28;100.00;101182.44;5048171;28;20060;-87
2023/09/18 02:28:59;;;;;;;0.85;0.85;;;;;;;15.09;100.00;101279.91;5045446;28;20024;-89
2023/09/18 02:31:25;;;;;;;1.48;1.13;;;;;;;15.22;100.00;101278.09;5062133;28;20044;-88
2023/09/18 02:33:50;;;;;;;0.70;0.50;;;;;;;15.33;100.00;101289.47;5062211;28;20033;-89
2023/09/18 02:36:16;;;;;;;0.68;0.68;;;;;;;15.34;100.00;101272.75;5061474;28;20551;-89
2023/09/18 02:38:42;;;;;;;2.45;1.40;;;;;;;14.78;100.00;101198.13;5048661;28;20051;-87
2023/09/18 02:41:09;;;;;;;1.42;1.23;;;;;;;14.84;100.00;101244.78;5065789;28;20119;-88
2023/09/18 02:43:37;;;;;;;1.23;0.85;;;;;;;14.91;100.00;101309.97;5063567;28;20137;-88
2023/09/18 02:46:04;;;;;;;3.92;2.03;;;;;;;14.34;100.00;101204.44;5042174;28;20126;-87
2023/09/18 02:48:29;;;;;;;2.85;1.77;;;;;;;14.32;100.00;101155.16;5041627;28;20086;-87
2023/09/18 02:50:55;;;;;;;1.90;1.80;;;;;;;14.68;100.00;101246.63;5057718;28;20353;-87
2023/09/18 02:53:24;;;;;;;0.63;0.63;;;;;;;14.85;100.00;101299.41;5061458;28;20123;-85
2023/09/18 02:55:52;;;;;;;1.20;1.05;;;;;;;14.81;100.00;101302.94;5042519;28;20115;-87
2023/09/18 02:58:19;;;;;;;2.17;1.85;;;;;;;14.46;100.00;101255.44;5045610;28;20055;-86
2023/09/18 03:00:50;;;;;;;0.98;0.88;;;;;;;13.91;100.00;101154.38;5039211;28;20563;-86
2023/09/18 03:03:16;;;;;;;1.30;1.20;;;;;;;14.75;100.00;101308.25;5043613;28;20053;-86
2023/09/18 03:05:43;;;;;;;2.28;1.60;;;;;;;14.13;100.00;101210.63;5054182;28;20029;-84
2023/09/18 03:08:10;;;;;;;1.85;1.20;;;;;;;14.10;100.00;101218.56;5044551;28;20063;-85
2023/09/18 03:10:37;;;;;;;1.45;1.35;;;;;;;14.18;100.00;101230.88;5059204;28;20056;-88
2023/09/18 03:13:03;;;;;;;1.30;0.85;;;;;;;14.91;100.00;101327.56;5070205;28;20376;-87
2023/09/18 03:15:29;;;;;;;2.30;1.67;;;;;;;14.83;100.00;101319.66;5047431;28;20116;-88
2023/09/18 03:17:55;;;;;;;1.45;1.35;;;;;;;14.74;100.00;101324.97;5062061;28;20489;-86
2023/09/18 03:20:24;;;;;;;1.27;1.10;;;;;;;14.28;100.00;101237.88;5047758;28;20090;-88
2023/09/18 03:22:51;;;;;;;2.88;2.08;;;;;;;14.74;100.00;101319.69;5069771;28;20079;-85
2023/09/18 03:25:17;;;;;;;1.75;1.63;;;;;;;14.25;100.00;101212.38;5061768;28;20052;-87
2023/09/18 03:27:42;;;;;;;17.40;1.67;;;;;;;14.29;100.00;101253.72;5068396;28;20068;-87
2023/09/18 03:30:09;;;;;;;2.55;2.33;;;;;;;14.25;100.00;101222.94;5071462;28;20037;-89
2023/09/18 03:32:35;;;;;;;2.47;1.88;;;;;;;14.78;100.00;101324.09;5042559;28;20078;-87
2023/09/18 03:35:01;;;;;;;2.53;2.33;;;;;;;13.87;100.00;101167.59;5064786;28;20028;-87
2023/09/18 03:37:27;;;;;;;0.60;0.55;;;;;;;14.08;100.00;101236.16;5066087;28;20047;-86
2023/09/18 03:39:52;;;;;;;2.28;1.85;;;;;;;14.61;100.00;101320.59;5056445;28;20083;-86
2023/09/18 03:42:18;;;;;;;0.90;0.60;;;;;;;13.69;100.00;101152.66;5060642;28;20045;-88
2023/09/18 03:44:43;;;;;;;2.97;1.30;;;;;;;14.26;100.00;101277.50;5046116;28;20119;-87
2023/09/18 03:47:09;;;;;;;2.97;1.90;;;;;;;14.71;100.00;101312.66;5059160;28;20029;-86
2023/09/18 03:49:34;;;;;;;3.67;0.95;;;;;;;13.93;100.00;101228.28;5044517;28;20051;-86
2023/09/18 03:52:00;;;;;;;0.55;0.52;;;;;;;13.88;100.00;101241.47;5044530;28;20071;-86
2023/09/18 03:54:25;;;;;;;3.42;3.13;;;;;;;13.72;100.00;101193.09;5061739;28;20048;-85
2023/09/18 03:56:50;;;;;;;1.98;1.77;;;;;;;14.48;100.00;101338.19;5056550;28;20052;-85
2023/09/18 03:59:16;;;;;;;2.03;1.80;;;;;;;14.15;100.00;101321.50;5072377;28;20037;-85
2023/09/18 04:01:41;;;;;;;2.17;1.75;;;;;;;14.23;100.00;101332.91;5043808;28;20118;-84
2023/09/18 04:04:07;;;;;;;2.35;2.15;;;;;;;13.77;100.00;101240.59;5058423;28;20037;-85
2023/09/18 04:06:51;;;;;;;7.28;1.67;;;;;;;14.10;100.00;101321.50;5038966;28;20114;-85
2023/09/18 04:09:17;;;;;;;;;;;;;;;14.29;100.00;101348.78;5037738;28;20054;-84
2023/09/18 04:11:43;;;;;;;2.83;2.05;;;;;;;14.08;100.00;101317.09;5032465;28;20007;-85
2023/09/18 04:14:09;;;;;;;0.93;0.77;;;;;;;13.50;100.00;101212.41;5038343;28;20033;-84
2023/09/18 04:16:35;;;;;;;1.70;1.52;;;;;;;13.61;100.00;101242.31;5036924;28;20507;-84
2023/09/18 04:19:04;;;;;;;1.83;1.38;;;;;;;13.82;100.00;101294.22;5034510;28;20571;-84
2023/09/18 04:21:29;;;;;;;0.82;0.80;;;;;;;13.96;100.00;101309.19;5040472;28;20500;-84
2023/09/18 04:23:58;;;;;;;1.95;1.67;;;;;;;13.55;100.00;101229.13;5046986;28;20084;-84
2023/09/18 04:26:24;;;;;;;1.33;1.23;;;;;;;14.06;100.00;101318.84;5041696;28;20045;-85
2023/09/18 04:28:50;;;;;;;2.65;2.45;;;;;;;14.22;100.00;101341.72;5042763;28;20033;-83
2023/09/18 04:31:16;;;;;;;2.00;1.83;;;;;;;13.84;100.00;101241.47;5051671;28;20053;-84
2023/09/18 04:33:41;;;;;;;3.05;2.60;;;;;;;14.31;100.00;101315.31;5045820;28;20102;-86
2023/09/18 04:36:07;;;;;;;1.05;0.77;;;;;;;14.55;100.00;101322.38;5044062;28;20037;-86
2023/09/18 04:38:33;;;;;;;2.83;1.40;;;;;;;13.93;100.00;101228.28;5046415;28;20028;-86
2023/09/18 04:41:01;;;;;;;2.28;1.60;;;;;;;14.19;100.00;101317.06;5047573;28;20036;-83
2023/09/18 04:43:29;;;;;;;1.88;1.58;;;;;;;14.44;100.00;101347.00;5038160;28;20099;-85
2023/09/18 04:45:55;;;;;;;1.67;1.58;;;;;;;14.44;100.00;101352.28;5074956;28;20112;-86
2023/09/18 04:48:20;;;;;;;3.42;2.20;;;;;;;14.46;100.00;101317.06;5046465;28;20477;-84
2023/09/18 04:50:46;;;;;;;2.25;2.05;;;;;;;13.94;100.00;101248.50;5046185;28;20047;-84
2023/09/18 04:53:13;;;;;;;1.48;1.25;;;;;;;14.48;100.00;101349.63;5041773;28;20036;-87
2023/09/18 04:55:41;;;;;;;2.33;2.13;;;;;;;14.45;100.00;101354.06;5043345;28;20052;-85
2023/09/18 04:58:06;;;;;;;2.03;1.85;;;;;;;14.48;100.00;101344.34;5043932;28;20048;-85
2023/09/18 05:00:33;;;;;;;2.17;1.98;;;;;;;14.61;100.00;101352.28;5049761;28;20053;-86
2023/09/18 05:03:01;;;;;;;4.35;2.97;;;;;;;14.22;100.00;101238.78;5063184;28;20051;-86
2023/09/18 05:05:27;;;;;;;1.00;0.90;;;;;;;13.88;100.00;101222.09;5062506;28;20028;-85
2023/09/18 05:07:53;;;;;;;2.35;1.40;;;;;;;14.22;100.00;101272.22;5068726;28;20494;-84
2023/09/18 05:10:18;;;;;;;1.95;1.75;;;;;;;14.26;100.00;101243.19;5075026;28;20053;-83
2023/09/18 05:12:44;;;;;;;0.90;0.63;;;;;;;14.45;100.00;101257.22;5067051;28;20045;-83
2023/09/18 05:15:10;;;;;;;1.58;1.48;;;;;;;14.98;100.00;101338.13;5062810;28;20052;-83
2023/09/18 05:17:46;;;;;;;3.03;2.72;;;;;;;14.92;100.00;101297.63;5043278;28;20399;-83
2023/09/18 05:20:14;;;;;;;13.57;3.50;;;;;;;14.72;100.00;101219.28;5055022;28;20041;-85
2023/09/18 05:22:40;;;;;;;1.98;1.77;;;;;;;15.26;100.00;101287.75;5044295;28;20392;-86
2023/09/18 05:25:06;;;;;;;1.65;1.45;;;;;;;15.51;100.00;101314.09;5068153;28;20113;-84
2023/09/18 05:27:32;;;;;;;0.63;0.55;;;;;;;15.58;100.00;101297.28;5059497;28;20051;-85
2023/09/18 05:29:58;;;;;;;0.63;0.63;;;;;;;16.25;100.00;101325.06;5067021;28;20044;-86
2023/09/18 05:32:23;;;;;;;2.10;1.75;;;;;;;17.04;100.00;101262.41;5062095;28;20036;-87
2023/09/18 05:34:49;;;;;;;3.40;3.10;;;;;;;17.70;100.00;101192.41;5068660;28;20060;-86
2023/09/18 05:37:15;;;;;;;1.65;1.55;;;;;;;17.62;100.00;101190.78;5049017;28;20056;-86
2023/09/18 05:39:41;;;;;;;3.55;2.03;;;;;;;17.43;100.00;101198.16;5059396;28;20169;-85
2023/09/18 05:42:06;;;;;;;2.95;2.75;;;;;;;18.24;100.00;101257.91;5042409;28;20087;-87
2023/09/18 05:44:31;;;;;;;3.28;2.22;;;;;;;18.08;100.00;101145.75;5057304;28;20033;-83
2023/09/18 05:46:57;;;;;;;2.03;1.77;;;;;;;18.44;100.00;101195.53;5041578;28;20068;-87
2023/09/18 05:49:23;;;;;;;0.32;0.32;;;;;;;18.73;100.00;101169.22;5048118;28;20056;-84
2023/09/18 05:51:49;;;;;;;5.05;1.95;;;;;;;19.46;100.00;101282.06;5058707;28;20431;-83
2023/09/18 05:54:14;;;;;;;0.65;0.65;;;;;;;19.77;100.00;101261.78;5051282;28;20052;-85
2023/09/18 05:56:41;;;;;;;3.55;1.77;;;;;;;19.60;100.00;101266.63;5037382;28;20135;-84
2023/09/18 05:59:07;;;;;;;1.75;1.60;;;;;;;18.96;100.00;101232.59;5049667;28;20032;-85
2023/09/18 06:01:33;;;;;;;1.73;1.55;;;;;;;18.94;100.00;101167.91;5046263;28;20487;-83
2023/09/18 06:03:58;;;;;;;2.17;1.98;;;;;;;19.79;100.00;101245.78;5043877;28;20041;-83
2023/09/18 06:06:25;;;;;;;2.13;1.92;;;;;;;19.94;100.00;101295.13;5042445;28;20053;-83
2023/09/18 06:08:53;;;;;;;0.85;0.80;;;;;;;18.64;100.00;101280.19;5041142;28;20119;-82
2023/09/18 06:11:19;;;;;;;1.67;1.58;;;;;;;19.40;100.00;101251.09;5047799;28;20032;-83
2023/09/18 06:13:45;;;;;;;1.50;1.38;;;;;;;19.67;100.00;101275.34;5028353;28;20048;-84
2023/09/18 06:16:10;;;;;;;4.50;3.22;;;;;;;18.53;100.00;101163.44;5042902;28;20049;-85
2023/09/18 06:18:38;;;;;;;1.90;1.77;;;;;;;19.69;100.00;101289.50;5046864;28;20061;-84
2023/09/18 06:21:04;;;;;;;1.88;1.75;;;;;;;19.63;100.00;101279.00;5044499;28;20045;-84
2023/09/18 06:23:29;;;;;;;3.05;2.30;;;;;;;19.33;100.00;101297.41;5043859;28;20098;-82
2023/09/18 06:25:56;;;;;;;4.43;1.90;;;;;;;18.99;100.00;101234.28;5047059;28;20411;-82
2023/09/18 06:28:22;;;;;;;3.13;2.22;;;;;;;19.03;100.00;101211.16;5045463;28;20044;-85
2023/09/18 06:30:48;;;;;;;1.00;1.00;;;;;;;19.43;100.00;101240.38;5027831;28;20095;-84
2023/09/18 06:33:14;;;;;;;0.80;0.80;;;;;;;18.60;100.00;101223.53;5028407;28;20057;-83
2023/09/18 06:35:39;;;;;;;4.47;1.95;;;;;;;18.20;100.00;101131.34;5039487;28;20032;-83
2023/09/18 06:38:06;;;;;;;1.10;0.85;;;;;;;18.92;100.00;101201.63;5041675;28;20033;-83
2023/09/18 06:40:32;;;;;;;2.88;2.63;;;;;;;19.30;100.00;101263.75;5045522;28;20037;-84
2023/09/18 06:43:01;;;;;;;0.93;0.90;;;;;;;19.64;100.00;101284.25;5027686;28;20110;-85
2023/09/18 06:45:27;;;;;;;1.80;1.42;;;;;;;18.72;100.00;101206.47;5024649;28;20135;-83
2023/09/18 06:47:53;;;;;;;1.73;1.45;;;;;;;19.53;100.00;101296.97;5045507;28;20041;-83
2023/09/18 06:50:19;;;;;;;2.35;2.15;;;;;;;19.28;100.00;101251.41;5038126;28;20032;-84
2023/09/18 06:52:44;;;;;;;17.45;2.17;;;;;;;19.46;100.00;101306.00;5042790;28;20085;-85
2023/09/18 06:55:10;;;;;;;1.20;0.85;;;;;;;19.59;100.00;101294.16;5023370;28;20393;-83
2023/09/18 06:57:35;;;;;;;2.78;1.75;;;;;;;19.09;100.00;101206.56;5026252;28;20822;-83
2023/09/18 07:00:01;;;;;;;2.42;2.28;;;;;;;19.84;100.00;101281.16;5046284;28;20048;-83
2023/09/18 07:02:27;;;;;;;10.52;2.83;;;;;;;19.51;100.00;101221.59;5046049;28;20032;-85
2023/09/18 07:04:52;;;;;;;1.13;0.98;;;;;;;19.87;100.00;101275.75;5040288;28;20036;-84
2023/09/18 07:07:24;;;;;;;0.65;0.65;;;;;;;19.58;100.00;101218.72;5046234;28;20053;-85
2023/09/18 07:09:53;;;;;;;2.28;1.17;;;;;;;19.95;100.00;101264.94;5021290;28;20072;-85
2023/09/18 07:12:19;;;;;;;2.83;2.25;;;;;;;19.71;100.00;101214.00;5044169;28;20088;-85
2023/09/18 07:14:47;;;;;;;1.35;1.25;;;;;;;20.02;100.00;101291.38;5040888;28;20108;-84
2023/09/18 07:17:15;;;;;;;2.08;1.83;;;;;;;19.82;100.00;101253.69;5041385;28;20047;-84
2023/09/18 07:19:40;;;;;;;0.70;0.70;;;;;;;19.70;100.00;101192.75;5043719;28;20045;-83
2023/09/18 07:22:06;;;;;;;1.65;1.50;;;;;;;19.86;100.00;101206.56;5045203;28;20068;-84
2023/09/18 07:24:31;;;;;;;1.88;1.63;;;;;;;19.51;100.00;101197.63;5045167;28;20045;-84
2023/09/18 07:26:58;;;;;;;0.82;0.75;;;;;;;19.67;100.00;101188.34;5045333;28;20041;-82
2023/09/18 07:29:25;;;;;;;1.35;1.17;;;;;;;20.17;100.00;101268.78;5026755;28;20029;-84
2023/09/18 07:31:51;;;;;;;0.40;0.40;;;;;;;19.81;100.00;101212.88;5038499;28;20720;-84
2023/09/18 07:34:17;;;;;;;1.75;1.63;;;;;;;20.31;100.00;101312.84;5036764;28;20041;-83
2023/09/18 07:36:44;;;;;;;1.13;1.00;;;;;;;20.53;100.00;101302.50;5045635;28;20044;-84
2023/09/18 07:39:11;;;;;;;1.02;0.90;;;;;;;19.90;100.00;101193.13;5044585;28;20647;-85
2023/09/18 07:41:37;;;;;;;1.55;0.82;;;;;;;19.80;100.00;101203.09;5036598;28;20025;-84
2023/09/18 07:44:03;;;;;;;3.33;3.03;;;;;;;20.34;100.00;101270.97;5043531;28;20064;-84
2023/09/18 07:46:28;;;;;;;1.88;1.77;;;;;;;20.47;100.00;101310.66;5034574;28;20045;-84
2023/09/18 07:48:54;;;;;;;0.30;0.30;;;;;;;19.61;100.00;101164.53;5046123;28;20033;-84
2023/09/18 07:51:21;;;;;;;0.93;0.85;;;;;;;20.05;100.00;101199.81;5046979;28;20044;-85
2023/09/18 07:53:47;;;;;;;1.02;1.00;;;;;;;20.22;100.00;101194.03;5044138;28;20056;-84
2023/09/18 07:56:12;;;;;;;0.55;0.55;;;;;;;20.78;100.00;101273.38;5046388;28;20084;-85
2023/09/18 07:58:38;;;;;;;1.15;1.02;;;;;;;20.94;100.00;101288.03;5065911;28;20084;-84
2023/09/18 08:01:09;;;;;;;0.60;0.52;;;;;;;21.05;100.00;101299.28;5064591;28;20056;-84
2023/09/18 08:03:34;;;;;;;1.67;1.58;;;;;;;20.71;100.00;101301.16;5075342;28;20040;-82
2023/09/18 08:06:00;;;;;;;4.30;1.80;;;;;;;20.65;100.00;101299.53;5058436;28;20041;-84
2023/09/18 08:08:26;;;;;;;1.42;1.17;;;;;;;20.31;100.00;101200.91;5063133;28;20065;-84
2023/09/18 08:10:52;;;;;;;0.38;0.38;;;;;;;20.77;100.00;101282.31;5069392;28;20037;-83
2023/09/18 08:13:19;;;;;;;3.00;1.55;;;;;;;20.92;100.00;101289.88;5043908;28;20094;-85
2023/09/18 08:15:45;;;;;;;1.05;0.93;;;;;;;20.40;100.00;101214.84;5061404;28;20045;-83
2023/09/18 08:18:13;;;;;;;0.98;0.77;;;;;;;21.03;100.00;101284.22;5068163;28;20033;-83
2023/09/18 08:20:42;;;;;;;0.30;0.30;;;;;;;20.90;100.00;101285.50;5067967;28;20028;-84
2023/09/18 08:23:11;;;;;;;0.73;0.73;;;;;;;20.94;100.00;101266.69;5061063;28;20029;-85
2023/09/18 08:25:37;;;;;;;2.22;1.23;;;;;;;21.25;100.00;101293.31;5063495;28;20048;-83
2023/09/18 08:28:04;;;;;;;0.30;0.30;;;;;;;20.43;100.00;101168.56;5066099;28;20071;-86
2023/09/18 08:30:30;;;;;;;0.65;0.65;;;;;;;21.25;100.00;101296.00;5031986;28;20048;-84
2023/09/18 08:32:55;;;;;;;0.28;0.28;;;;;;;20.99;100.00;101219.38;5064934;28;20048;-83
2023/09/18 08:35:21;;;;;;;0.70;0.60;;;;;;;21.00;100.00;101190.91;5069349;28;20040;-83
2023/09/18 08:37:47;;;;;;;1.10;0.95;;;;;;;20.75;100.00;101201.47;5068585;28;20085;-84
2023/09/18 08:40:14;;;;;;;0.88;0.75;;;;;;;20.49;100.00;101189.72;5066106;28;20056;-83
2023/09/18 08:42:44;;;;;;;0.40;0.40;;;;;;;20.50;100.00;101147.94;5063066;28;20121;-84
2023/09/18 08:45:14;;;;;;;1.08;0.98;;;;;;;20.85;100.00;101234.94;5063705;28;20052;-84
2023/09/18 08:47:40;;;;;;;1.25;1.15;;;;;;;20.98;100.00;101179.44;5067622;28;20052;-83
2023/09/18 08:50:08;;;;;;;0.80;0.80;;;;;;;21.12;100.00;101168.28;5060488;28;20045;-84
2023/09/18 08:52:36;;;;;;;0.60;0.60;;;;;;;21.86;100.00;101265.63;5068387;28;20423;-83
2023/09/18 08:55:03;;;;;;;2.17;1.95;;;;;;;21.57;100.00;101187.34;5064341;28;20748;-85
2023/09/18 08:57:30;;;;;;;7.00;2.15;;;;;;;21.78;100.00;101260.53;5049978;28;20044;-85
2023/09/18 08:59:57;;;;;;;0.65;0.65;;;;;;;21.16;100.00;101191.31;5048734;28;20067;-81
2023/09/18 09:02:23;;;;;;;2.05;1.15;;;;;;;21.42;100.00;101179.81;5051172;28;20072;-84
2023/09/18 09:04:48;;;;;;;0.52;0.52;;;;;;;21.46;100.00;101189.47;5043185;28;20602;-84
2023/09/18 09:07:14;;;;;;;1.65;1.55;;;;;;;22.24;100.00;101267.06;5046549;28;20088;-85
2023/09/18 09:09:41;;;;;;;0.55;0.43;;;;;;;21.64;100.00;101178.19;5020796;28;20033;-85
2023/09/18 09:12:07;;;;;;;0.47;0.47;;;;;;;22.57;100.00;101269.44;5029708;28;20508;-84
2023/09/18 09:14:33;;;;;;;0.95;0.85;;;;;;;22.40;100.00;101264.69;5041960;28;20033;-83
2023/09/18 09:16:59;;;;;;;3.35;1.88;;;;;;;22.34;100.00;101260.44;5038571;28;20265;-84
2023/09/18 09:19:38;;;;;;;0.43;0.43;;;;;;;22.32;100.00;101235.53;5047195;28;20392;-84
2023/09/18 09:22:04;;;;;;;2.47;1.80;;;;;;;22.46;100.00;101231.50;5030142;28;20110;-84
2023/09/18 09:24:42;;;;;;;1.60;1.27;;;;;;;22.41;100.00;101226.34;5042792;28;20045;-84
2023/09/18 09:27:09;;;;;;;1.52;0.38;;;;;;;22.27;100.00;101223.28;5038354;28;20546;-88
2023/09/18 09:29:35;;;;;;;1.98;1.80;;;;;;;22.73;100.00;101243.88;5038974;28;20039;-86
2023/09/18 09:32:17;;;;;;;1.60;1.45;;;;;;;21.66;100.00;101090.00;5047622;28;20025;-83
2023/09/18 09:34:43;;;;;;;0.95;0.82;;;;;;;22.14;100.00;101194.25;5038988;28;20480;-85
2023/09/18 09:37:10;;;;;;;0.70;0.70;;;;;;;22.67;100.00;101230.72;5045335;28;20412;-83
2023/09/18 09:39:48;;;;;;;7.50;0.95;;;;;;;22.47;100.00;101193.13;5042177;28;20064;-86
2023/09/18 09:42:18;;;;;;;0.40;0.40;;;;;;;22.33;100.00;101148.16;5046518;28;20057;-85
2023/09/18 09:44:44;;;;;;;0.43;0.40;;;;;;;22.60;100.00;101165.00;5037581;28;20061;-83
2023/09/18 09:47:11;;;;;;;0.38;0.38;;;;;;;23.02;99.40;101212.47;5045633;28;20150;-85
2023/09/18 09:49:47;;;;;;;3.50;1.95;;;;;;;22.93;97.49;101157.47;5040223;28;20377;-84
2023/09/18 09:52:21;;;;;;;0.75;0.75;;;;;;;22.50;95.48;101143.06;5044813;28;20416;-84
2023/09/18 09:54:47;;;;;;;0.95;0.95;;;;;;;22.62;98.62;101239.84;5021410;28;20029;-85
2023/09/18 09:57:12;;;;;;;0.98;0.88;;;;;;;23.11;96.33;101214.78;5044496;28;20068;-84
2023/09/18 09:59:39;;;;;;;0.55;0.55;;;;;;;23.44;94.61;101226.91;5028389;28;20028;-86
2023/09/18 10:02:09;;;;;;;0.45;0.30;;;;;;;23.23;91.30;101167.03;5042295;28;20097;-83
2023/09/18 10:04:36;;;;;;;0.90;0.90;;;;;;;23.76;88.77;101201.47;5041584;28;20075;-84
2023/09/18 10:07:07;;;;;;;1.23;1.13;;;;;;;23.59;87.51;101203.00;5020220;28;20132;-84
2023/09/18 10:09:35;;;;;;;1.65;1.55;;;;;;;23.98;84.52;101207.66;5042579;28;20049;-84
2023/09/18 10:12:04;;;;;;;0.70;0.68;;;;;;;23.53;82.31;101127.38;5033874;28;20037;-84
2023/09/18 10:14:34;;;;;;;1.80;1.58;;;;;;;23.16;86.31;101127.13;5038116;28;20033;-84
2023/09/18 10:17:22;;;;;;;0.93;0.70;;;;;;;23.50;86.67;101122.16;5044112;28;20036;-84
2023/09/18 10:20:19;;;;;;;1.48;1.15;;;;;;;23.98;90.30;101196.94;5033588;28;20045;-85
2023/09/18 10:22:49;;;;;;;1.05;0.88;;;;;;;22.69;96.32;101113.81;5030805;28;20059;-84
2023/09/18 10:25:22;;;;;;;0.32;0.30;;;;;;;22.89;97.42;101125.53;5045593;28;20045;-84
2023/09/18 10:27:49;;;;;;;1.45;1.30;;;;;;;22.59;97.16;101096.34;5048295;28;20040;-84
2023/09/18 10:30:18;;;;;;;2.75;1.25;;;;;;;23.57;96.38;101198.66;5046965;28;20123;-84
2023/09/18 10:32:48;;;;;;;0.30;0.30;;;;;;;24.05;92.17;101185.97;5046725;28;20068;-84
2023/09/18 10:35:14;;;;;;;0.65;0.60;;;;;;;24.48;89.33;101192.97;5022801;28;20052;-83
2023/09/18 10:37:42;;;;;;;0.80;0.80;;;;;;;24.81;83.20;101169.06;5023061;28;20136;-82
2023/09/18 10:40:09;;;;;;;0.50;0.50;;;;;;;24.82;81.03;101098.31;5042714;28;20055;-83
2023/09/18 10:42:39;;;;;;;1.27;1.20;;;;;;;24.55;73.52;101102.31;5045067;28;20053;-84
2023/09/18 10:45:06;;;;;;;2.53;2.30;;;;;;;24.91;73.70;101156.09;5040164;28;20053;-83
2023/09/18 10:47:34;;;;;;;0.73;0.73;;;;;;;25.80;68.93;101166.91;5035323;28;20056;-82
2023/09/18 10:50:00;;;;;;;1.23;0.70;;;;;;;24.56;70.76;101091.53;5038325;28;20068;-84
2023/09/18 10:52:26;;;;;;;4.03;1.00;;;;;;;25.65;70.25;101153.31;5041943;28;20132;-85
2023/09/18 10:54:52;;;;;;;1.15;1.05;;;;;;;25.88;67.56;101078.69;5046611;28;20056;-85
2023/09/18 10:57:18;;;;;;;0.85;0.68;;;;;;;25.94;62.72;101061.34;5039615;28;20152;-84
2023/09/18 10:59:47;;;;;;;0.52;0.52;;;;;;;26.32;61.65;101094.25;5045192;28;20028;-84
2023/09/18 11:02:17;;;;;;;0.65;0.55;;;;;;;26.00;63.13;101157.84;5046051;28;20365;-84
2023/09/18 11:04:44;;;;;;;2.83;1.05;;;;;;;25.74;64.26;101143.06;5033605;28;20501;-83
2023/09/18 11:07:23;;;;;;;0.85;0.60;;;;;;;26.10;63.99;101142.97;5045545;28;20148;-83
2023/09/18 11:09:49;;;;;;;5.25;2.00;;;;;;;25.62;65.92;101133.81;5027002;28;20527;-83
2023/09/18 11:12:17;;;;;;;1.40;1.23;;;;;;;25.55;65.54;101151.19;5026932;28;20048;-84
2023/09/18 11:14:52;;;;;;;1.83;1.15;;;;;;;25.87;67.37;101142.38;5043026;28;20033;-84
2023/09/18 11:17:37;;;;;;;1.85;1.20;;;;;;;25.13;68.72;101096.81;5040871;28;20033;-83
2023/09/18 11:20:14;;;;;;;0.65;0.52;;;;;;;25.00;70.64;101061.63;5044907;28;20045;-82